createdAt,value
2022-12-20T00:01:57.565Z,100936.66
2022-12-20T00:04:26.049Z,100933.81
2022-12-20T00:06:54.481Z,100933.72
2022-12-20T00:09:23.058Z,100918.81
2022-12-20T00:11:51.572Z,100913.56
2022-12-20T00:14:21.379Z,100917.81
2022-12-20T00:16:49.867Z,100921.41
2022-12-20T00:19:18.556Z,100914.19
2022-12-20T00:21:46.990Z,100917.56
2022-12-20T00:24:19.300Z,100916.63
2022-12-20T00:26:50.724Z,100916.78
2022-12-20T00:29:20.880Z,100906.00
2022-12-20T00:31:49.615Z,100902.63
2022-12-20T00:34:18.034Z,100910.31
2022-12-20T00:36:46.357Z,100904.31
2022-12-20T00:39:14.786Z,100915.81
2022-12-20T00:41:43.797Z,100906.28
2022-12-20T00:44:12.242Z,100916.78
2022-12-20T00:46:42.306Z,100910.19
2022-12-20T00:49:10.820Z,100908.34
2022-12-20T00:51:39.259Z,100907.19
2022-12-20T00:54:07.685Z,100909.88
2022-12-20T00:56:36.088Z,100912.59
2022-12-20T00:59:04.478Z,100899.41
2022-12-20T01:01:35.077Z,100907.25
2022-12-20T01:04:05.632Z,100894.03
2022-12-20T01:06:34.390Z,100909.72
2022-12-20T01:09:02.988Z,100911.50
2022-12-20T01:11:33.057Z,100920.94
2022-12-20T01:14:03.630Z,100919.94
2022-12-20T01:16:34.793Z,100914.94
2022-12-20T01:19:04.952Z,100927.03
2022-12-20T01:21:33.776Z,100914.13
2022-12-20T01:24:03.041Z,100929.63
2022-12-20T01:26:31.980Z,100930.63
2022-12-20T01:29:02.208Z,100928.78
2022-12-20T01:31:32.295Z,100928.44
2022-12-20T01:34:02.203Z,100917.16
2022-12-20T01:36:34.290Z,100907.03
2022-12-20T01:39:06.622Z,100908.72
2022-12-20T01:41:36.329Z,100918.47
2022-12-20T01:44:06.548Z,100906.50
2022-12-20T01:46:37.589Z,100890.91
2022-12-20T01:49:11.468Z,100890.06
2022-12-20T01:51:45.017Z,100882.22
2022-12-20T01:54:18.144Z,100875.56
2022-12-20T01:56:52.803Z,100876.38
2022-12-20T01:59:21.643Z,100852.97
2022-12-20T02:01:50.374Z,100851.34
2022-12-20T02:04:19.192Z,100846.59
2022-12-20T02:06:49.078Z,100855.22
2022-12-20T02:09:18.058Z,100827.66
2022-12-20T02:11:58.732Z,100840.63
2022-12-20T02:14:51.560Z,100841.53
2022-12-20T02:17:32.564Z,100831.47
2022-12-20T02:20:40.386Z,100834.13
2022-12-20T02:23:46.341Z,100838.38
2022-12-20T02:26:38.424Z,100830.59
2022-12-20T02:29:22.860Z,100830.59
2022-12-20T02:32:01.058Z,100833.91
2022-12-20T02:34:32.607Z,100822.75
2022-12-20T02:37:01.093Z,100817.28
2022-12-20T02:39:32.967Z,100823.19
2022-12-20T02:42:05.616Z,100819.66
2022-12-20T02:44:54.056Z,100805.66
2022-12-20T02:47:28.238Z,100805.66
2022-12-20T02:49:57.691Z,100791.81
2022-12-20T02:52:31.215Z,100789.78
2022-12-20T02:55:00.235Z,100781.88
2022-12-20T02:57:33.884Z,100781.97
2022-12-20T03:00:06.823Z,100779.16
2022-12-20T03:02:51.692Z,100784.31
2022-12-20T03:05:23.569Z,100779.16
2022-12-20T03:07:52.383Z,100784.22
2022-12-20T03:10:21.232Z,100782.47
2022-12-20T03:12:49.718Z,100779.94
2022-12-20T03:15:18.305Z,100775.47
2022-12-20T03:17:48.181Z,100787.13
2022-12-20T03:20:16.749Z,100763.66
2022-12-20T03:22:45.177Z,100773.00
2022-12-20T03:25:13.637Z,100775.03
2022-12-20T03:27:42.106Z,100765.50
2022-12-20T03:30:11.108Z,100769.81
2022-12-20T03:32:39.771Z,100772.25
2022-12-20T03:35:10.623Z,100772.25
2022-12-20T03:37:39.250Z,100761.97
2022-12-20T03:40:09.406Z,100774.44
2022-12-20T03:42:38.411Z,100781.69
2022-12-20T03:45:07.966Z,100779.78
2022-12-20T03:47:36.400Z,100774.63
2022-12-20T03:50:05.143Z,100781.22
2022-12-20T03:52:35.248Z,100786.94
2022-12-20T03:55:03.747Z,100779.25
2022-12-20T03:57:32.336Z,100794.19
2022-12-20T04:00:00.738Z,100801.19
2022-12-20T04:02:29.382Z,100788.44
2022-12-20T04:04:57.964Z,100782.69
2022-12-20T04:07:26.364Z,100773.25
2022-12-20T04:09:56.527Z,100765.25
2022-12-20T04:12:25.198Z,100764.75
2022-12-20T04:14:53.649Z,100767.03
2022-12-20T04:17:22.257Z,100767.94
2022-12-20T04:19:50.704Z,100757.56
2022-12-20T04:22:19.362Z,100754.13
2022-12-20T04:24:48.101Z,100772.91
2022-12-20T04:27:18.169Z,100772.25
2022-12-20T04:29:46.621Z,100767.94
2022-12-20T04:32:15.087Z,100782.53
2022-12-20T04:34:43.436Z,100776.38
2022-12-20T04:37:11.876Z,100777.13
2022-12-20T04:39:40.398Z,100777.22
2022-12-20T04:42:08.846Z,100772.25
2022-12-20T04:44:38.765Z,100777.13
2022-12-20T04:47:07.272Z,100775.28
2022-12-20T04:49:35.892Z,100775.13
2022-12-20T04:52:18.172Z,100775.97
2022-12-20T04:54:46.786Z,100780.19
2022-12-20T04:57:15.537Z,100782.91
2022-12-20T04:59:45.543Z,100788.78
2022-12-20T05:02:14.173Z,100796.44
2022-12-20T05:04:43.499Z,100789.13
2022-12-20T05:07:11.934Z,100786.59
2022-12-20T05:09:40.410Z,100786.41
2022-12-20T05:12:09.134Z,100780.19
2022-12-20T05:14:37.597Z,100778.50
2022-12-20T05:17:07.414Z,100778.59
2022-12-20T05:19:36.010Z,100779.34
2022-12-20T05:22:21.680Z,100781.03
2022-12-20T05:25:07.348Z,100782.06
2022-12-20T05:27:35.798Z,100768.56
2022-12-20T05:30:04.634Z,100777.56
2022-12-20T05:32:34.987Z,100771.41
2022-12-20T05:35:03.543Z,100778.31
2022-12-20T05:37:35.536Z,100793.00
2022-12-20T05:40:04.833Z,100788.44
2022-12-20T05:42:33.356Z,100783.72
2022-12-20T05:45:02.250Z,100779.34
2022-12-20T05:47:33.996Z,100771.41
2022-12-20T05:50:04.285Z,100767.78
2022-12-20T05:52:32.765Z,100774.69
2022-12-20T05:55:01.312Z,100765.00
2022-12-20T05:57:29.737Z,100769.47
2022-12-20T05:59:58.184Z,100765.00
2022-12-20T06:02:26.730Z,100760.13
2022-12-20T06:04:55.818Z,100762.56
2022-12-20T06:07:25.646Z,100758.91
2022-12-20T06:09:54.058Z,100779.53
2022-12-20T06:12:23.330Z,100764.59
2022-12-20T06:14:52.107Z,100776.75
2022-12-20T06:17:22.107Z,100769.66
2022-12-20T06:19:50.486Z,100760.03
2022-12-20T06:22:19.161Z,100760.03
2022-12-20T06:24:49.141Z,100745.28
2022-12-20T06:27:18.850Z,100747.13
2022-12-20T06:29:52.148Z,100755.06
2022-12-20T06:32:20.453Z,100758.88
2022-12-20T06:34:48.908Z,100757.25
2022-12-20T06:37:17.732Z,100759.34
2022-12-20T06:39:46.127Z,100749.81
2022-12-20T06:42:16.277Z,100746.13
2022-12-20T06:44:44.839Z,100739.03
2022-12-20T06:47:13.921Z,100749.50
2022-12-20T06:49:42.419Z,100753.28
2022-12-20T06:52:10.855Z,100757.41
2022-12-20T06:54:39.240Z,100759.09
2022-12-20T06:57:08.176Z,100754.53
2022-12-20T06:59:37.989Z,100757.75
2022-12-20T07:02:08.189Z,100745.50
2022-12-20T07:04:38.071Z,100757.03
2022-12-20T07:07:06.984Z,100741.34
2022-12-20T07:09:35.606Z,100754.31
2022-12-20T07:12:04.000Z,100756.19
2022-12-20T07:14:32.380Z,100764.44
2022-12-20T07:17:02.318Z,100767.06
2022-12-20T07:19:31.014Z,100751.72
2022-12-20T07:21:59.471Z,100760.13
2022-12-20T07:24:27.965Z,100762.69
2022-12-20T07:26:56.422Z,100767.63
2022-12-20T07:29:25.952Z,100771.84
2022-12-20T07:31:54.887Z,100777.75
2022-12-20T07:34:24.984Z,100770.81
2022-12-20T07:36:54.554Z,100767.09
2022-12-20T07:39:22.969Z,100762.03
2022-12-20T07:41:54.594Z,100768.81
2022-12-20T07:44:23.569Z,100770.66
2022-12-20T07:46:52.055Z,100754.19
2022-12-20T07:49:20.454Z,100765.28
2022-12-20T07:51:53.254Z,100767.88
2022-12-20T07:54:24.315Z,100764.41
2022-12-20T07:56:56.369Z,100758.50
2022-12-20T07:59:29.864Z,100762.03
2022-12-20T08:02:04.349Z,100755.72
2022-12-20T08:04:35.634Z,100761.44
2022-12-20T08:07:05.773Z,100744.97
2022-12-20T08:09:40.298Z,100754.28
2022-12-20T08:12:12.350Z,100762.88
2022-12-20T08:14:41.358Z,100743.88
2022-12-20T08:17:09.696Z,100739.56
2022-12-20T08:19:38.983Z,100749.69
2022-12-20T08:22:08.805Z,100747.00
2022-12-20T08:24:37.241Z,100747.75
2022-12-20T08:27:05.670Z,100743.06
2022-12-20T08:29:34.108Z,100753.53
2022-12-20T08:32:02.490Z,100736.81
2022-12-20T08:34:31.410Z,100746.44
2022-12-20T08:36:59.807Z,100754.94
2022-12-20T08:39:29.572Z,100746.25
2022-12-20T08:41:58.075Z,100753.38
2022-12-20T08:44:26.919Z,100744.00
2022-12-20T08:46:55.495Z,100745.59
2022-12-20T08:49:23.963Z,100750.47
2022-12-20T08:51:52.574Z,100763.66
2022-12-20T08:54:21.128Z,100772.16
2022-12-20T08:56:51.056Z,100780.19
2022-12-20T08:59:19.922Z,100774.31
2022-12-20T09:01:48.367Z,100767.97
2022-12-20T09:04:17.020Z,100768.72
2022-12-20T09:06:45.593Z,100768.53
2022-12-20T09:09:13.974Z,100756.19
2022-12-20T09:11:42.567Z,100753.47
2022-12-20T09:14:12.445Z,100761.44
2022-12-20T09:16:40.815Z,100750.94
2022-12-20T09:19:09.717Z,100762.94
2022-12-20T09:21:38.115Z,100762.94
2022-12-20T09:24:06.899Z,100755.16
2022-12-20T09:26:36.247Z,100750.41
2022-12-20T09:29:05.427Z,100743.28
2022-12-20T09:31:35.449Z,100743.88
2022-12-20T09:34:03.908Z,100734.69
2022-12-20T09:36:33.668Z,100745.00
2022-12-20T09:39:02.069Z,100750.78
2022-12-20T09:41:34.952Z,100747.13
2022-12-20T09:44:12.634Z,100748.00
2022-12-20T09:46:43.345Z,100730.03
2022-12-20T09:49:16.741Z,100708.13
2022-12-20T09:52:01.655Z,100709.81
2022-12-20T09:54:39.448Z,100712.06
2022-12-20T09:57:17.567Z,100702.53
2022-12-20T09:59:49.717Z,100700.66
2022-12-20T10:02:55.555Z,100697.28
2022-12-20T10:05:17.405Z,100714.38
2022-12-20T10:07:55.076Z,100726.66
2022-12-20T10:10:41.092Z,100732.09
2022-12-20T10:13:24.364Z,100744.25
2022-12-20T10:15:56.504Z,100731.72
2022-12-20T10:18:44.543Z,100728.16
2022-12-20T10:21:21.858Z,100730.03
2022-12-20T10:24:01.116Z,100736.75
2022-12-20T10:26:30.287Z,100728.16
2022-12-20T10:28:58.654Z,100726.28
2022-12-20T10:31:27.170Z,100726.84
2022-12-20T10:33:57.903Z,100724.22
2022-12-20T10:36:28.830Z,100729.53
2022-12-20T10:38:58.774Z,100725.72
2022-12-20T10:41:29.142Z,100715.50
2022-12-20T10:44:01.681Z,100714.69
2022-12-20T10:46:39.333Z,100705.41
2022-12-20T10:49:31.181Z,100701.03
2022-12-20T10:52:02.274Z,100697.28
2022-12-20T10:54:33.131Z,100699.72
2022-12-20T10:57:04.762Z,100690.19
2022-12-20T10:59:36.619Z,100691.66
2022-12-20T11:02:29.231Z,100691.47
2022-12-20T11:05:03.843Z,100678.94
2022-12-20T11:07:36.063Z,100701.59
2022-12-20T11:10:19.796Z,100690.06
2022-12-20T11:12:54.771Z,100666.78
2022-12-20T11:15:34.294Z,100664.72
2022-12-20T11:18:08.017Z,100663.66
2022-12-20T11:20:44.107Z,100673.31
2022-12-20T11:23:27.475Z,100674.06
2022-12-20T11:26:09.966Z,100669.47
2022-12-20T11:28:56.148Z,100665.81
2022-12-20T11:31:38.615Z,100658.72
2022-12-20T11:34:19.406Z,100677.78
2022-12-20T11:37:05.739Z,100663.75
2022-12-20T11:39:40.435Z,100653.28
2022-12-20T11:42:21.463Z,100640.16
2022-12-20T11:45:08.508Z,100639.97
2022-12-20T11:48:25.137Z,100642.41
2022-12-20T11:51:03.292Z,100641.47
2022-12-20T11:53:39.996Z,100652.25
2022-12-20T11:56:14.773Z,100663.75
2022-12-20T11:58:53.205Z,100651.78
2022-12-20T12:01:27.245Z,100641.09
2022-12-20T12:04:06.437Z,100639.22
2022-12-20T12:06:49.410Z,100625.84
2022-12-20T12:09:26.484Z,100625.00
2022-12-20T12:12:07.857Z,100644.28
2022-12-20T12:14:48.569Z,100661.69
2022-12-20T12:17:28.011Z,100668.59
2022-12-20T12:20:04.167Z,100677.22
2022-12-20T12:22:37.380Z,100656.44
2022-12-20T12:25:15.672Z,100645.88
2022-12-20T12:27:44.189Z,100644.09
2022-12-20T12:30:15.303Z,100643.06
2022-12-20T12:32:48.333Z,100647.25
2022-12-20T12:35:40.518Z,100654.19
2022-12-20T12:38:49.900Z,100670.66
2022-12-20T12:41:54.536Z,100655.84
2022-12-20T12:44:36.245Z,100639.38
2022-12-20T12:47:13.060Z,100652.22
2022-12-20T12:49:42.583Z,100652.13
2022-12-20T12:52:35.508Z,100632.56
2022-12-20T12:55:05.381Z,100628.91
2022-12-20T12:57:58.240Z,100618.53
2022-12-20T13:00:52.431Z,100618.00
2022-12-20T13:03:41.200Z,100612.00
2022-12-20T13:07:06.252Z,100617.44
2022-12-20T13:09:44.043Z,100614.16
2022-12-20T13:12:52.011Z,100611.53
2022-12-20T13:15:50.670Z,100613.81
2022-12-20T13:18:24.646Z,100600.31
2022-12-20T13:21:32.704Z,100599.38
2022-12-20T13:24:47.329Z,100603.13
2022-12-20T13:27:35.499Z,100615.28
2022-12-20T13:30:30.797Z,100626.78
2022-12-20T13:33:24.599Z,100607.44
2022-12-20T13:36:27.291Z,100606.41
2022-12-20T13:38:58.680Z,100608.19
2022-12-20T13:41:36.878Z,100599.00
2022-12-20T13:44:21.147Z,100584.00
2022-12-20T13:46:55.706Z,100589.38
2022-12-20T13:49:29.203Z,100589.75
2022-12-20T13:52:18.705Z,100584.44
2022-12-20T13:54:50.282Z,100582.56
2022-12-20T13:57:22.908Z,100568.06
2022-12-20T14:00:01.812Z,100558.66
2022-12-20T14:02:37.726Z,100555.47
2022-12-20T14:05:15.157Z,100557.94
2022-12-20T14:07:44.713Z,100554.00
2022-12-20T14:10:21.305Z,100552.38
2022-12-20T14:12:54.076Z,100550.06
2022-12-20T14:15:25.003Z,100542.41
2022-12-20T14:17:53.371Z,100551.59
2022-12-20T14:20:26.806Z,100545.31
2022-12-20T14:23:04.661Z,100540.84
2022-12-20T14:25:39.187Z,100535.72
2022-12-20T14:28:21.556Z,100540.28
2022-12-20T14:30:55.741Z,100552.56
2022-12-20T14:33:31.223Z,100550.88
2022-12-20T14:36:10.462Z,100528.06
2022-12-20T14:38:40.328Z,100527.41
2022-12-20T14:41:34.175Z,100520.41
2022-12-20T14:44:07.179Z,100523.75
2022-12-20T14:46:36.579Z,100529.63
2022-12-20T14:49:19.973Z,100526.56
2022-12-20T14:51:50.853Z,100534.63
2022-12-20T14:54:56.606Z,100531.25
2022-12-20T14:57:14.120Z,100529.22
2022-12-20T14:59:42.552Z,100529.03
2022-12-20T15:02:36.815Z,100529.22
2022-12-20T15:05:24.528Z,100519.22
2022-12-20T15:07:54.676Z,100510.16
2022-12-20T15:10:24.082Z,100501.75
2022-12-20T15:12:52.659Z,100499.88
2022-12-20T15:15:29.148Z,100495.00
2022-12-20T15:17:57.903Z,100492.38
2022-12-20T15:20:26.340Z,100489.59
2022-12-20T15:22:56.490Z,100478.94
2022-12-20T15:25:25.165Z,100475.78
2022-12-20T15:27:53.865Z,100479.69
2022-12-20T15:30:22.593Z,100481.84
2022-12-20T15:32:55.501Z,100482.50
2022-12-20T15:35:25.845Z,100488.66
2022-12-20T15:37:55.864Z,100479.22
2022-12-20T15:40:24.944Z,100477.44
2022-12-20T15:42:53.551Z,100465.84
2022-12-20T15:45:29.214Z,100470.34
2022-12-20T15:47:57.770Z,100474.66
2022-12-20T15:50:26.490Z,100473.53
2022-12-20T15:52:58.450Z,100473.31
2022-12-20T15:55:27.351Z,100494.66
2022-12-20T15:57:55.694Z,100491.91
2022-12-20T16:00:25.730Z,100496.13
2022-12-20T16:02:57.036Z,100492.78
2022-12-20T16:05:25.666Z,100475.19
2022-12-20T16:07:55.718Z,100486.28
2022-12-20T16:10:24.471Z,100478.75
2022-12-20T16:12:53.177Z,100457.69
2022-12-20T16:15:23.730Z,100457.63
2022-12-20T16:17:52.470Z,100458.00
2022-12-20T16:20:21.119Z,100455.28
2022-12-20T16:22:50.383Z,100456.31
2022-12-20T16:25:32.668Z,100460.72
2022-12-20T16:28:01.348Z,100455.47
2022-12-20T16:30:30.004Z,100459.69
2022-12-20T16:33:00.126Z,100463.47
2022-12-20T16:35:31.558Z,100447.53
2022-12-20T16:38:01.131Z,100450.50
2022-12-20T16:40:32.933Z,100460.25
2022-12-20T16:43:05.065Z,100464.94
2022-12-20T16:45:34.938Z,100463.44
2022-12-20T16:48:03.417Z,100457.81
2022-12-20T16:50:32.175Z,100455.94
2022-12-20T16:53:01.093Z,100459.69
2022-12-20T16:55:39.325Z,100465.84
2022-12-20T16:58:08.310Z,100477.81
2022-12-20T17:00:37.506Z,100466.59
2022-12-20T17:03:07.337Z,100475.94
2022-12-20T17:05:37.875Z,100470.34
2022-12-20T17:10:54.263Z,100466.59
2022-12-20T17:13:22.616Z,100458.94
2022-12-20T17:15:50.998Z,100467.00
2022-12-20T17:18:19.585Z,100460.06
2022-12-20T17:20:47.917Z,100456.31
2022-12-20T17:26:04.860Z,100445.00
2022-12-20T17:28:33.519Z,100442.50
2022-12-20T17:31:07.878Z,100448.66
2022-12-20T17:33:36.749Z,100449.69
2022-12-20T17:36:05.695Z,100463.25
2022-12-20T17:38:34.184Z,100467.00
2022-12-20T17:41:04.004Z,100465.84
2022-12-20T17:43:33.990Z,100431.84
2022-12-20T17:46:04.538Z,100418.66
2022-12-20T17:48:37.676Z,100435.19
2022-12-20T17:51:16.313Z,100449.09
2022-12-20T17:53:45.134Z,100473.53
2022-12-20T17:56:17.806Z,100483.06
2022-12-20T17:58:49.351Z,100494.25
2022-12-20T18:01:23.544Z,100488.91
2022-12-20T18:04:03.679Z,100453.59
2022-12-20T18:06:34.653Z,100452.78
2022-12-20T18:09:03.289Z,100452.78
2022-12-20T18:11:33.404Z,100444.19
2022-12-20T18:14:02.868Z,100432.66
2022-12-20T18:16:35.461Z,100440.25
2022-12-20T18:19:04.410Z,100454.66
2022-12-20T18:21:32.897Z,100462.50
2022-12-20T18:24:01.410Z,100471.09
2022-12-20T18:26:32.178Z,100472.84
2022-12-20T18:29:03.957Z,100461.91
2022-12-20T18:31:34.472Z,100442.66
2022-12-20T18:34:03.392Z,100443.78
2022-12-20T18:36:34.778Z,100448.28
2022-12-20T18:39:05.290Z,100435.00
2022-12-20T18:41:34.246Z,100403.72
2022-12-20T18:44:05.847Z,100406.97
2022-12-20T18:46:35.140Z,100398.84
2022-12-20T18:49:04.101Z,100400.91
2022-12-20T18:51:36.891Z,100402.69
2022-12-20T18:54:07.523Z,100401.00
2022-12-20T18:56:37.748Z,100404.66
2022-12-20T18:59:11.952Z,100402.06
2022-12-20T19:01:43.255Z,100403.06
2022-12-20T19:04:12.345Z,100396.81
2022-12-20T19:06:41.540Z,100381.00
2022-12-20T19:09:11.730Z,100389.72
2022-12-20T19:11:40.559Z,100371.13
2022-12-20T19:14:12.592Z,100370.25
2022-12-20T19:16:41.770Z,100372.97
2022-12-20T19:19:10.483Z,100371.47
2022-12-20T19:21:41.894Z,100393.53
2022-12-20T19:24:12.086Z,100393.53
2022-12-20T19:26:40.543Z,100377.84
2022-12-20T19:29:11.801Z,100373.16
2022-12-20T19:31:40.431Z,100381.19
2022-12-20T19:34:11.934Z,100371.47
2022-12-20T19:36:41.947Z,100367.09
2022-12-20T19:39:15.434Z,100372.97
2022-12-20T19:41:50.625Z,100349.34
2022-12-20T19:44:29.910Z,100348.31
2022-12-20T19:47:08.439Z,100360.75
2022-12-20T19:49:37.020Z,100365.78
2022-12-20T19:52:06.396Z,100347.66
2022-12-20T19:54:35.464Z,100354.50
2022-12-20T19:57:04.072Z,100367.56
2022-12-20T19:59:34.247Z,100375.50
2022-12-20T20:02:02.944Z,100352.69
2022-12-20T20:04:31.537Z,100337.09
2022-12-20T20:07:00.203Z,100340.34
2022-12-20T20:09:28.631Z,100318.59
2022-12-20T20:11:57.220Z,100307.94
2022-12-20T20:14:25.564Z,100319.88
2022-12-20T20:16:55.344Z,100328.66
2022-12-20T20:19:23.727Z,100334.84
2022-12-20T20:21:52.178Z,100345.31
2022-12-20T20:24:20.987Z,100332.41
2022-12-20T20:26:49.445Z,100324.44
2022-12-20T20:29:17.817Z,100323.44
2022-12-20T20:31:46.483Z,100320.41
2022-12-20T20:34:16.340Z,100320.50
2022-12-20T20:36:45.066Z,100316.31
2022-12-20T20:39:13.433Z,100304.78
2022-12-20T20:41:42.993Z,100292.03
2022-12-20T20:44:12.674Z,100299.03
2022-12-20T20:46:41.392Z,100302.50
2022-12-20T20:49:10.147Z,100311.50
2022-12-20T20:51:40.203Z,100300.81
2022-12-20T20:54:08.842Z,100307.53
2022-12-20T20:56:37.312Z,100309.41
2022-12-20T20:59:09.322Z,100302.19
2022-12-20T21:01:40.464Z,100301.25
2022-12-20T21:04:09.176Z,100280.22
2022-12-20T21:06:42.058Z,100287.13
2022-12-20T21:09:12.569Z,100282.19
2022-12-20T21:11:41.398Z,100296.22
2022-12-20T21:14:11.623Z,100305.94
2022-12-20T21:16:41.881Z,100292.78
2022-12-20T21:19:11.109Z,100292.03
2022-12-20T21:21:39.496Z,100295.66
2022-12-20T21:24:08.991Z,100299.34
2022-12-20T21:26:38.810Z,100294.00
2022-12-20T21:29:07.178Z,100288.75
2022-12-20T21:31:36.381Z,100288.22
2022-12-20T21:34:05.152Z,100281.13
2022-12-20T21:36:33.560Z,100278.22
2022-12-20T21:39:02.908Z,100265.13
2022-12-20T21:41:31.866Z,100259.97
2022-12-20T21:44:02.687Z,100267.09
2022-12-20T21:46:32.152Z,100285.31
2022-12-20T21:49:01.137Z,100273.66
2022-12-20T21:51:31.306Z,100259.34
2022-12-20T21:54:01.764Z,100268.16
2022-12-20T21:56:31.865Z,100269.09
2022-12-20T21:59:02.619Z,100270.41
2022-12-20T22:01:32.326Z,100269.56
2022-12-20T22:04:02.773Z,100262.34
2022-12-20T22:06:32.074Z,100250.78
2022-12-20T22:09:01.195Z,100244.41
2022-12-20T22:11:30.054Z,100245.13
2022-12-20T22:13:58.976Z,100245.13
2022-12-20T22:16:31.085Z,100238.50
2022-12-20T22:19:00.647Z,100225.34
2022-12-20T22:21:31.075Z,100229.63
2022-12-20T22:24:01.262Z,100252.00
2022-12-20T22:26:31.959Z,100239.53
2022-12-20T22:29:02.370Z,100230.59
2022-12-20T22:31:32.591Z,100235.06
2022-12-20T22:34:02.134Z,100235.16
2022-12-20T22:36:30.704Z,100229.06
2022-12-20T22:38:59.340Z,100223.09
2022-12-20T22:41:30.230Z,100210.69
2022-12-20T22:44:00.311Z,100216.66
2022-12-20T22:49:19.101Z,100234.72
2022-12-20T22:51:59.316Z,100233.97
2022-12-20T22:54:35.128Z,100223.63
2022-12-20T22:57:03.700Z,100208.03
2022-12-20T22:59:32.975Z,100199.78
2022-12-20T23:02:01.974Z,100204.72
2022-12-20T23:04:32.073Z,100209.66
2022-12-20T23:07:00.414Z,100205.44
2022-12-20T23:09:29.355Z,100191.72
2022-12-20T23:12:14.784Z,100179.78
2022-12-20T23:15:04.112Z,100179.38
2022-12-20T23:17:34.520Z,100175.16
2022-12-20T23:20:21.700Z,100165.50
2022-12-20T23:22:50.104Z,100152.97
2022-12-20T23:25:21.272Z,100155.13
2022-12-20T23:27:51.467Z,100153.38
2022-12-20T23:30:22.530Z,100158.47
2022-12-20T23:32:51.361Z,100156.06
2022-12-20T23:35:22.147Z,100162.63
2022-12-20T23:37:50.851Z,100177.19
2022-12-20T23:40:19.854Z,100172.69
2022-12-20T23:42:48.146Z,100173.00
2022-12-20T23:45:16.701Z,100179.06
2022-12-20T23:47:45.030Z,100186.91
2022-12-20T23:50:14.042Z,100184.94
2022-12-20T23:52:44.087Z,100189.31
2022-12-20T23:55:12.672Z,100166.94
2022-12-20T23:57:46.595Z,100171.09
